Fort Wayne, IN (46802)

8:32 PM EDT on August 27, 2016 (GMT -0400)
Oakdale | | Change Station

Elev 794 ft 41.05 °N, 85.14 °W | Updated 15 minutes ago

Scattered Clouds
Scattered Clouds
78.4 °F
Feels Like 81 °F
N
2.7
Wind Variable Wind from South

Today
High -- | Low -- °F
--% Chance of Precip.
Yesterday
High -- | Low -- °F
Precip. -- in
Pressure 30.09 in
Visibility 10.0 miles
Clouds Few 2500 ft
Scattered Clouds 25000 ft
Heat Index 81 °F
Dew Point 71 °F
Humidity 79%
Rainfall 0.00 in
Snow Depth Not available.
7:02 AM 8:20 PM
Waning Crescent, 20% visible
METAR KFWA 272354Z 18004KT 10SM FEW025 SCT250 26/22 A3010 RMK AO2 SLP188 T02560217 10278 20256 53010
Pressure 30.09 in
Visibility 10.0 miles
Clouds Few 2500 ft
Scattered Clouds 25000 ft
Heat Index 81 °F
Dew Point 71 °F
Humidity 79%
Rainfall 0.00 in
Snow Depth Not available.
7:02 AM 8:20 PM
Waning Crescent, 20% visible
METAR KFWA 272354Z 18004KT 10SM FEW025 SCT250 26/22 A3010 RMK AO2 SLP188 T02560217 10278 20256 53010

10-Day Weather Forecast

Almanac

Astronomy

Aug. 27, 2016 Rise Set
Actual Time
Civil Twilight
Nautical Twilight
Astronomical Twilight
Moon
Length of Visible Light
Length of Day
Tomorrow will be .
, % of the Moon is Illuminated

Today's Extremes

State Highs State Lows

Community

WunderPhotos

Upload Photos

1,935,475 photos uploaded!

WunderBlog® & News

Nearby

Air Quality

  Air Quality AQ Index Pollutant
Not available.

Snow Depth

Station Depth Elevation

Earthquake Activity

City Distance Mag. Time & Date
Minimum magnitude displayed is 2.5.

Coastal Water Temperatures

Place Temperature

Stations

Nearby Weather Stations

Station Location Temp. Windchill Dew Point Humidity Wind Precip. Elev Updated Type
                   

Watches & Warnings

There are currently no watches in effect.